createdAt,value
2022-12-25T00:00:07.529Z,32.83
2022-12-25T00:00:31.825Z,32.13
2022-12-25T00:00:54.715Z,31.80
2022-12-25T00:01:18.383Z,32.35
2022-12-25T00:01:41.262Z,32.25
2022-12-25T00:02:05.080Z,31.35
2022-12-25T00:02:29.807Z,32.22
2022-12-25T00:02:52.825Z,33.78
2022-12-25T00:03:15.831Z,33.45
2022-12-25T00:03:38.923Z,33.20
2022-12-25T00:04:01.868Z,33.75
2022-12-25T00:04:24.886Z,33.83
2022-12-25T00:04:47.677Z,33.40
2022-12-25T00:05:11.583Z,33.20
2022-12-25T00:05:34.392Z,32.53
2022-12-25T00:05:58.886Z,31.58
2022-12-25T00:06:21.680Z,31.98
2022-12-25T00:06:44.488Z,31.33
2022-12-25T00:07:07.279Z,31.48
2022-12-25T00:07:30.075Z,33.13
2022-12-25T00:07:52.873Z,32.45
2022-12-25T00:08:15.592Z,33.38
2022-12-25T00:08:41.787Z,33.97
2022-12-25T00:09:04.585Z,33.25
2022-12-25T00:09:30.735Z,33.45
2022-12-25T00:09:53.806Z,32.40
2022-12-25T00:10:16.786Z,32.70
2022-12-25T00:10:45.033Z,33.20
2022-12-25T00:11:09.216Z,34.00
2022-12-25T00:11:32.114Z,33.92
2022-12-25T00:11:54.844Z,34.13
2022-12-25T00:12:19.376Z,32.75
2022-12-25T00:12:42.113Z,33.20
2022-12-25T00:13:04.973Z,33.50
2022-12-25T00:13:27.855Z,33.30
2022-12-25T00:13:50.685Z,34.97
2022-12-25T00:14:13.454Z,33.67
2022-12-25T00:14:36.365Z,33.03
2022-12-25T00:14:59.139Z,32.97
2022-12-25T00:15:21.903Z,33.83
2022-12-25T00:15:46.106Z,33.90
2022-12-25T00:16:10.069Z,34.22
2022-12-25T00:16:32.957Z,34.83
2022-12-25T00:16:55.900Z,34.83
2022-12-25T00:17:19.602Z,32.95
2022-12-25T00:17:42.477Z,32.42
2022-12-25T00:18:05.342Z,32.92
2022-12-25T00:18:28.239Z,33.03
2022-12-25T00:18:51.738Z,32.85
2022-12-25T00:19:14.526Z,34.60
2022-12-25T00:19:37.279Z,34.50
2022-12-25T00:20:00.013Z,32.25
2022-12-25T00:20:22.804Z,33.38
2022-12-25T00:20:45.580Z,32.95
2022-12-25T00:21:08.425Z,33.42
2022-12-25T00:21:32.031Z,33.38
2022-12-25T00:21:54.958Z,32.63
2022-12-25T00:22:17.778Z,33.53
2022-12-25T00:22:40.625Z,32.80
2022-12-25T00:23:03.492Z,32.88
2022-12-25T00:23:26.368Z,33.00
2022-12-25T00:23:54.093Z,32.17
2022-12-25T00:24:16.864Z,32.38
2022-12-25T00:24:39.859Z,32.85
2022-12-25T00:25:02.571Z,32.85
2022-12-25T00:25:25.403Z,34.05
2022-12-25T00:25:48.161Z,33.47
2022-12-25T00:26:12.542Z,34.33
2022-12-25T00:26:35.377Z,32.20
2022-12-25T00:26:58.145Z,32.97
2022-12-25T00:27:20.962Z,33.83
2022-12-25T00:27:43.744Z,33.53
2022-12-25T00:28:06.573Z,33.08
2022-12-25T00:28:29.358Z,32.78
2022-12-25T00:28:53.017Z,31.30
2022-12-25T00:29:15.788Z,30.38
2022-12-25T00:29:38.626Z,30.38
2022-12-25T00:30:01.882Z,30.30
2022-12-25T00:30:24.734Z,29.08
2022-12-25T00:30:49.162Z,28.42
2022-12-25T00:31:13.032Z,28.33
2022-12-25T00:31:35.973Z,29.08
2022-12-25T00:31:58.901Z,29.73
2022-12-25T00:32:21.703Z,28.30
2022-12-25T00:32:44.454Z,29.17
2022-12-25T00:33:07.313Z,28.63
2022-12-25T00:33:30.123Z,29.13
2022-12-25T00:33:52.957Z,29.00
2022-12-25T00:34:15.778Z,29.88
2022-12-25T00:34:38.538Z,30.48
2022-12-25T00:35:01.280Z,29.77
2022-12-25T00:35:24.062Z,29.98
2022-12-25T00:35:57.700Z,29.05
2022-12-25T00:36:21.845Z,27.27
2022-12-25T00:36:45.077Z,28.40
2022-12-25T00:37:07.834Z,28.25
2022-12-25T00:37:30.631Z,27.15
2022-12-25T00:37:53.403Z,27.90
2022-12-25T00:38:16.191Z,29.00
2022-12-25T00:38:39.796Z,30.55
2022-12-25T00:39:02.926Z,29.98
2022-12-25T00:39:25.644Z,30.02
2022-12-25T00:39:50.901Z,30.08
2022-12-25T00:40:13.988Z,29.40
2022-12-25T00:40:43.432Z,28.65
2022-12-25T00:41:06.808Z,29.67
2022-12-25T00:41:48.303Z,29.15
2022-12-25T00:42:20.340Z,28.55
2022-12-25T00:42:43.063Z,27.52
2022-12-25T00:43:05.788Z,27.88
2022-12-25T00:43:28.543Z,28.48
2022-12-25T00:43:51.208Z,27.73
2022-12-25T00:44:14.210Z,28.33
2022-12-25T00:44:37.222Z,27.05
2022-12-25T00:45:01.630Z,26.15
2022-12-25T00:45:24.445Z,26.95
2022-12-25T00:45:56.492Z,26.88
2022-12-25T00:46:19.425Z,27.10
2022-12-25T00:46:42.624Z,26.40
2022-12-25T00:47:05.645Z,26.98
2022-12-25T00:47:28.555Z,25.48
2022-12-25T00:47:51.297Z,25.55
2022-12-25T00:48:14.013Z,25.85
2022-12-25T00:48:36.736Z,26.43
2022-12-25T00:49:00.993Z,26.38
2022-12-25T00:49:23.897Z,24.90
2022-12-25T00:49:46.737Z,24.53
2022-12-25T00:50:12.023Z,24.45
2022-12-25T00:50:34.836Z,24.13
2022-12-25T00:50:57.889Z,23.70
2022-12-25T00:51:20.664Z,24.40
2022-12-25T00:51:43.527Z,24.40
2022-12-25T00:52:06.273Z,24.85
2022-12-25T00:52:29.023Z,24.88
2022-12-25T00:52:51.792Z,24.92
2022-12-25T00:53:16.999Z,25.38
2022-12-25T00:53:39.783Z,26.02
2022-12-25T00:54:02.488Z,24.95
2022-12-25T00:54:25.199Z,24.70
2022-12-25T00:54:47.917Z,25.90
2022-12-25T00:55:10.906Z,25.10
2022-12-25T00:55:33.663Z,25.67
2022-12-25T00:55:57.572Z,25.33
2022-12-25T00:56:20.327Z,25.50
2022-12-25T00:56:43.145Z,25.90
2022-12-25T00:57:05.946Z,25.75
2022-12-25T00:57:28.779Z,26.30
2022-12-25T00:57:51.591Z,26.00
2022-12-25T00:58:14.380Z,24.40
2022-12-25T00:58:37.243Z,24.35
2022-12-25T00:59:00.093Z,25.30
2022-12-25T00:59:22.834Z,23.75
2022-12-25T00:59:45.506Z,23.52
2022-12-25T01:00:09.814Z,23.38
2022-12-25T01:00:32.558Z,21.90
2022-12-25T01:00:56.847Z,21.10
2022-12-25T01:01:19.859Z,21.90
2022-12-25T01:01:43.185Z,22.63
2022-12-25T01:02:24.719Z,23.65
2022-12-25T01:02:47.761Z,23.90
2022-12-25T01:03:10.721Z,24.52
2022-12-25T01:03:33.741Z,24.23
2022-12-25T01:03:56.644Z,24.08
2022-12-25T01:04:19.472Z,24.13
2022-12-25T01:04:42.258Z,23.83
2022-12-25T01:05:06.897Z,22.48
2022-12-25T01:05:29.773Z,22.08
2022-12-25T01:05:55.870Z,23.02
2022-12-25T01:06:18.639Z,23.42
2022-12-25T01:06:41.452Z,23.00
2022-12-25T01:07:04.225Z,22.80
2022-12-25T01:07:27.801Z,23.92
2022-12-25T01:07:50.568Z,23.85
2022-12-25T01:08:15.529Z,23.25
2022-12-25T01:08:39.077Z,22.88
2022-12-25T01:09:20.162Z,23.33
2022-12-25T01:10:01.611Z,23.08
2022-12-25T01:10:24.447Z,23.40
2022-12-25T01:10:54.574Z,22.85
2022-12-25T01:11:17.328Z,22.65
2022-12-25T01:11:40.106Z,22.55
2022-12-25T01:12:02.808Z,22.17
2022-12-25T01:12:25.631Z,21.92
2022-12-25T01:12:48.517Z,22.70
2022-12-25T01:13:11.206Z,22.55
2022-12-25T01:13:35.216Z,21.83
2022-12-25T01:13:57.966Z,22.13
2022-12-25T01:14:20.717Z,21.98
2022-12-25T01:14:43.504Z,21.35
2022-12-25T01:15:07.551Z,22.13
2022-12-25T01:15:30.360Z,23.05
2022-12-25T01:15:54.821Z,23.05
2022-12-25T01:16:19.072Z,22.30
2022-12-25T01:16:43.596Z,21.83
2022-12-25T01:17:06.451Z,22.00
2022-12-25T01:17:29.206Z,22.48
2022-12-25T01:17:51.988Z,21.92
2022-12-25T01:18:14.793Z,22.08
2022-12-25T01:18:38.302Z,21.73
2022-12-25T01:19:01.037Z,21.63
2022-12-25T01:19:23.752Z,22.02
2022-12-25T01:19:46.501Z,21.58
2022-12-25T01:20:09.526Z,21.75
2022-12-25T01:20:32.259Z,21.73
2022-12-25T01:20:55.010Z,21.77
2022-12-25T01:21:18.522Z,22.25
2022-12-25T01:21:41.289Z,22.38
2022-12-25T01:22:04.021Z,22.42
2022-12-25T01:22:26.875Z,21.83
2022-12-25T01:22:49.613Z,22.17
2022-12-25T01:23:12.506Z,22.52
2022-12-25T01:23:35.367Z,22.55
2022-12-25T01:23:58.193Z,22.00
2022-12-25T01:24:20.976Z,21.80
2022-12-25T01:24:44.353Z,22.45
2022-12-25T01:25:07.911Z,23.58
2022-12-25T01:25:30.750Z,24.48
2022-12-25T01:25:53.768Z,24.83
2022-12-25T01:26:16.852Z,24.40
2022-12-25T01:26:39.691Z,24.23
2022-12-25T01:27:02.476Z,23.70
2022-12-25T01:27:25.284Z,23.75
2022-12-25T01:27:48.006Z,24.20
2022-12-25T01:28:10.747Z,23.90
2022-12-25T01:28:33.510Z,23.40
2022-12-25T01:28:56.202Z,23.42
2022-12-25T01:29:18.946Z,22.98
2022-12-25T01:29:41.798Z,22.88
2022-12-25T01:30:05.378Z,23.40
2022-12-25T01:30:28.128Z,23.25
2022-12-25T01:30:50.885Z,22.52
2022-12-25T01:31:19.113Z,23.33
2022-12-25T01:31:42.057Z,23.42
2022-12-25T01:32:05.637Z,23.33
2022-12-25T01:32:28.481Z,24.00
2022-12-25T01:32:51.208Z,24.25
2022-12-25T01:33:13.988Z,23.90
2022-12-25T01:33:36.807Z,23.25
2022-12-25T01:33:59.566Z,22.73
2022-12-25T01:34:22.370Z,23.88
2022-12-25T01:34:49.344Z,23.23
2022-12-25T01:35:16.866Z,22.80
2022-12-25T01:35:40.349Z,23.25
2022-12-25T01:36:03.031Z,22.60
2022-12-25T01:36:26.249Z,22.25
2022-12-25T01:36:49.071Z,22.77
2022-12-25T01:37:11.853Z,24.05
2022-12-25T01:37:34.566Z,23.38
2022-12-25T01:37:57.466Z,22.50
2022-12-25T01:38:20.189Z,22.90
2022-12-25T01:38:43.400Z,22.85
2022-12-25T01:39:06.356Z,23.35
2022-12-25T01:39:29.248Z,23.95
2022-12-25T01:39:52.134Z,23.58
2022-12-25T01:40:14.938Z,23.27
2022-12-25T01:40:38.161Z,22.80
2022-12-25T01:41:00.921Z,23.13
2022-12-25T01:41:24.605Z,22.45
2022-12-25T01:41:48.362Z,22.00
2022-12-25T01:42:16.003Z,21.45
2022-12-25T01:42:38.877Z,22.98
2022-12-25T01:43:01.582Z,23.15
2022-12-25T01:43:25.461Z,22.42
2022-12-25T01:43:59.713Z,21.80
2022-12-25T01:44:55.523Z,21.52
2022-12-25T01:45:32.885Z,21.73
2022-12-25T01:45:56.107Z,22.60
2022-12-25T01:46:23.277Z,22.88
2022-12-25T01:46:46.194Z,21.50
2022-12-25T01:47:08.967Z,21.70
2022-12-25T01:47:31.788Z,21.45
2022-12-25T01:47:54.559Z,21.40
2022-12-25T01:48:19.561Z,21.38
2022-12-25T01:48:43.341Z,21.48
2022-12-25T01:49:06.835Z,21.67
2022-12-25T01:49:29.689Z,21.80
2022-12-25T01:49:52.438Z,21.50
2022-12-25T01:50:15.218Z,21.75
2022-12-25T01:50:38.389Z,21.65
2022-12-25T01:51:02.311Z,21.23
2022-12-25T01:51:26.637Z,22.08
2022-12-25T01:51:52.047Z,22.52
2022-12-25T01:52:21.665Z,21.73
2022-12-25T01:52:46.625Z,21.27
2022-12-25T01:53:09.445Z,21.10
2022-12-25T01:53:32.220Z,20.77
2022-12-25T01:53:57.408Z,20.75
2022-12-25T01:54:23.396Z,20.63
2022-12-25T01:54:48.173Z,21.40
2022-12-25T01:55:12.201Z,21.30
2022-12-25T01:55:35.525Z,21.40
2022-12-25T01:55:59.165Z,21.90
2022-12-25T01:56:22.237Z,21.25
2022-12-25T01:56:44.985Z,20.27
2022-12-25T01:57:10.191Z,21.42
2022-12-25T01:57:34.802Z,21.67
2022-12-25T01:57:57.686Z,21.25
2022-12-25T01:58:20.491Z,21.05
2022-12-25T01:58:43.323Z,21.38
2022-12-25T01:59:06.182Z,21.67
2022-12-25T01:59:30.136Z,21.05
2022-12-25T01:59:53.011Z,21.70
2022-12-25T02:00:16.492Z,22.42
2022-12-25T02:00:39.236Z,21.83
2022-12-25T02:01:02.030Z,21.70
2022-12-25T02:01:26.377Z,22.25
2022-12-25T02:01:49.357Z,21.83
2022-12-25T02:02:12.547Z,22.33
2022-12-25T02:02:35.687Z,23.08
2022-12-25T02:02:59.017Z,23.13
2022-12-25T02:03:21.956Z,22.77
2022-12-25T02:03:44.807Z,24.45
2022-12-25T02:04:15.378Z,23.45
2022-12-25T02:04:41.362Z,23.38
2022-12-25T02:05:05.343Z,22.88
2022-12-25T02:05:30.127Z,23.65
2022-12-25T02:05:52.864Z,23.63
2022-12-25T02:06:15.605Z,23.40
2022-12-25T02:06:38.418Z,23.52
2022-12-25T02:07:01.147Z,23.17
2022-12-25T02:07:24.657Z,22.77
2022-12-25T02:07:47.452Z,23.00
2022-12-25T02:08:11.578Z,23.98
2022-12-25T02:08:34.330Z,23.42
2022-12-25T02:08:57.155Z,22.38
2022-12-25T02:09:19.966Z,23.30
2022-12-25T02:09:42.997Z,23.92
2022-12-25T02:10:07.177Z,22.63
2022-12-25T02:10:30.035Z,22.45
2022-12-25T02:10:52.832Z,22.58
2022-12-25T02:11:35.539Z,22.80
2022-12-25T02:11:58.326Z,23.30
2022-12-25T02:12:23.133Z,23.27
2022-12-25T02:12:47.150Z,22.98
2022-12-25T02:13:09.970Z,23.20
2022-12-25T02:13:32.789Z,23.23
2022-12-25T02:13:55.562Z,22.58
2022-12-25T02:14:18.406Z,22.30
2022-12-25T02:14:41.205Z,22.63
2022-12-25T02:15:06.781Z,22.55
2022-12-25T02:15:33.219Z,22.88
2022-12-25T02:15:59.685Z,22.17
2022-12-25T02:16:22.590Z,22.00
2022-12-25T02:16:57.031Z,21.63
2022-12-25T02:17:25.234Z,22.60
2022-12-25T02:17:53.363Z,21.77
2022-12-25T02:18:18.586Z,21.77
2022-12-25T02:18:44.234Z,22.20
2022-12-25T02:19:11.732Z,21.88
2022-12-25T02:20:00.967Z,21.70
2022-12-25T02:20:48.193Z,21.65
2022-12-25T02:21:24.026Z,22.40
2022-12-25T02:21:54.002Z,21.85
2022-12-25T02:22:18.402Z,21.65
2022-12-25T02:22:48.108Z,22.52
2022-12-25T02:23:29.687Z,21.88
2022-12-25T02:24:03.927Z,20.95
2022-12-25T02:24:56.706Z,22.10
2022-12-25T02:25:29.612Z,21.48
2022-12-25T02:25:58.832Z,21.40
2022-12-25T02:26:53.963Z,21.95
2022-12-25T02:27:23.277Z,22.38
2022-12-25T02:27:58.902Z,21.40
2022-12-25T02:28:23.108Z,22.05
2022-12-25T02:28:50.420Z,22.77
2022-12-25T02:29:17.660Z,21.85
2022-12-25T02:29:46.254Z,22.52
2022-12-25T02:30:09.719Z,22.23
2022-12-25T02:30:34.906Z,21.92
2022-12-25T02:31:01.941Z,22.05
2022-12-25T02:31:29.650Z,22.52
2022-12-25T02:31:55.734Z,22.83
2022-12-25T02:32:24.730Z,21.90
2022-12-25T02:32:50.584Z,21.50
2022-12-25T02:33:33.790Z,21.63
2022-12-25T02:34:04.618Z,21.50
2022-12-25T02:34:32.017Z,21.63
2022-12-25T02:34:58.285Z,21.52
2022-12-25T02:35:23.929Z,21.67
2022-12-25T02:35:47.861Z,21.60
2022-12-25T02:36:11.215Z,21.58
2022-12-25T02:36:38.416Z,22.48
2022-12-25T02:37:05.042Z,22.27
2022-12-25T02:37:30.009Z,21.55
2022-12-25T02:37:54.882Z,22.25
2022-12-25T02:38:19.862Z,21.70
2022-12-25T02:39:02.896Z,21.73
2022-12-25T02:39:45.458Z,21.60
2022-12-25T02:40:11.209Z,22.25
2022-12-25T02:40:36.190Z,21.77
2022-12-25T02:41:00.221Z,20.98
2022-12-25T02:41:23.072Z,21.42
2022-12-25T02:41:45.997Z,21.35
2022-12-25T02:42:24.609Z,21.88
2022-12-25T02:43:08.638Z,21.85
2022-12-25T02:43:52.269Z,21.60
2022-12-25T02:44:35.645Z,22.08
2022-12-25T02:45:17.062Z,21.63
2022-12-25T02:46:01.175Z,22.52
2022-12-25T02:46:42.897Z,21.95
2022-12-25T02:47:24.598Z,22.58
2022-12-25T02:48:05.773Z,21.30
2022-12-25T02:48:49.287Z,21.70
2022-12-25T02:49:32.476Z,22.08
2022-12-25T02:50:24.817Z,22.13
2022-12-25T02:51:07.824Z,22.20
2022-12-25T02:51:51.744Z,22.17
2022-12-25T02:52:34.762Z,22.38
2022-12-25T02:53:16.500Z,22.98
2022-12-25T02:53:58.541Z,22.17
2022-12-25T02:54:41.752Z,22.67
2022-12-25T02:55:25.177Z,21.73
2022-12-25T02:56:06.794Z,22.73
2022-12-25T02:56:48.509Z,21.85
2022-12-25T02:57:30.512Z,22.27
2022-12-25T02:58:12.252Z,22.85
2022-12-25T02:58:56.096Z,22.38
2022-12-25T02:59:37.532Z,22.10
2022-12-25T03:00:19.027Z,22.02
2022-12-25T03:01:01.669Z,22.50
2022-12-25T03:01:44.073Z,21.75
2022-12-25T03:02:25.711Z,22.20
2022-12-25T03:03:07.133Z,22.02
2022-12-25T03:03:49.248Z,22.05
2022-12-25T03:04:32.488Z,23.10
2022-12-25T03:05:14.092Z,21.10
2022-12-25T03:05:56.984Z,21.92
2022-12-25T03:06:38.493Z,21.88
2022-12-25T03:07:06.742Z,21.50
2022-12-25T03:07:30.097Z,22.10
2022-12-25T03:07:52.875Z,22.85
2022-12-25T03:08:19.220Z,22.40
2022-12-25T03:08:42.812Z,21.50
2022-12-25T03:09:24.563Z,21.35
2022-12-25T03:10:08.763Z,21.98
2022-12-25T03:10:50.359Z,21.58
2022-12-25T03:11:31.164Z,21.33
2022-12-25T03:11:57.218Z,21.52
2022-12-25T03:12:24.397Z,21.55
2022-12-25T03:12:49.447Z,21.90
2022-12-25T03:13:13.130Z,21.27
2022-12-25T03:13:38.270Z,21.10
2022-12-25T03:14:21.957Z,22.42
2022-12-25T03:15:03.533Z,21.92
2022-12-25T03:15:44.904Z,20.52
2022-12-25T03:16:26.718Z,20.92
2022-12-25T03:16:50.679Z,21.15
2022-12-25T03:17:13.520Z,21.10
2022-12-25T03:17:36.256Z,21.40
2022-12-25T03:18:01.049Z,20.77
2022-12-25T03:18:24.603Z,20.67
2022-12-25T03:18:47.357Z,21.30
2022-12-25T03:19:28.783Z,22.00
2022-12-25T03:20:10.256Z,20.88
2022-12-25T03:20:51.834Z,21.88
2022-12-25T03:21:32.861Z,21.55
2022-12-25T03:22:14.441Z,21.15
2022-12-25T03:22:56.260Z,20.65
2022-12-25T03:23:39.389Z,21.45
2022-12-25T03:24:20.997Z,21.42
2022-12-25T03:25:02.436Z,20.80
2022-12-25T03:25:44.073Z,22.40
2022-12-25T03:26:25.684Z,21.25
2022-12-25T03:26:57.703Z,20.58
2022-12-25T03:27:20.497Z,20.90
2022-12-25T03:27:43.274Z,20.80
2022-12-25T03:28:06.434Z,20.02
2022-12-25T03:28:29.305Z,20.33
2022-12-25T03:28:53.618Z,20.48
2022-12-25T03:29:36.313Z,20.80
2022-12-25T03:30:17.714Z,20.85
2022-12-25T03:31:02.683Z,20.60
2022-12-25T03:31:28.979Z,21.00
2022-12-25T03:31:53.943Z,20.90
2022-12-25T03:32:22.849Z,20.48
2022-12-25T03:32:48.339Z,20.55
2022-12-25T03:33:43.290Z,20.13
2022-12-25T03:34:34.221Z,19.92
2022-12-25T03:35:19.370Z,20.15
2022-12-25T03:35:44.707Z,20.05
2022-12-25T03:36:10.303Z,20.17
2022-12-25T03:36:35.601Z,20.75
2022-12-25T03:37:07.863Z,20.52
2022-12-25T03:37:43.372Z,20.50
2022-12-25T03:38:32.334Z,20.13
2022-12-25T03:39:32.668Z,20.08
2022-12-25T03:40:18.480Z,20.15
2022-12-25T03:41:06.309Z,20.45
2022-12-25T03:41:53.623Z,19.90
2022-12-25T03:42:54.838Z,20.88
2022-12-25T03:44:03.051Z,20.38
2022-12-25T03:44:49.135Z,21.27
2022-12-25T03:45:31.689Z,22.13
2022-12-25T03:46:13.279Z,22.42
2022-12-25T03:46:55.889Z,22.02
2022-12-25T03:47:35.899Z,22.13
2022-12-25T03:48:13.756Z,21.38
2022-12-25T03:48:55.609Z,22.52
2022-12-25T03:49:40.639Z,21.50
2022-12-25T03:50:25.138Z,22.83
2022-12-25T03:51:08.090Z,22.23
2022-12-25T03:51:50.112Z,22.20
2022-12-25T03:52:32.796Z,22.17
2022-12-25T03:53:14.233Z,22.75
2022-12-25T03:53:58.914Z,21.98
2022-12-25T03:54:42.309Z,23.10
2022-12-25T03:55:25.950Z,22.83
2022-12-25T03:56:07.210Z,22.88
2022-12-25T03:56:49.041Z,22.25
2022-12-25T03:57:30.190Z,23.13
2022-12-25T03:58:11.579Z,22.50
2022-12-25T03:58:53.222Z,22.83
2022-12-25T03:59:37.313Z,21.83
2022-12-25T04:00:20.009Z,22.00
2022-12-25T04:01:01.286Z,21.85
2022-12-25T04:01:42.460Z,21.80
2022-12-25T04:02:24.291Z,22.55
2022-12-25T04:03:06.059Z,21.50
2022-12-25T04:03:48.064Z,22.00
2022-12-25T04:04:29.789Z,22.17
2022-12-25T04:05:11.391Z,22.50
2022-12-25T04:05:52.761Z,22.42
2022-12-25T04:06:33.856Z,22.48
2022-12-25T04:07:15.072Z,22.17
2022-12-25T04:07:56.339Z,22.20
2022-12-25T04:08:37.610Z,22.63
2022-12-25T04:09:18.884Z,22.13
2022-12-25T04:10:00.389Z,22.50
2022-12-25T04:10:41.534Z,22.23
2022-12-25T04:11:22.759Z,21.30
2022-12-25T04:12:04.466Z,22.05
2022-12-25T04:12:45.604Z,21.38
2022-12-25T04:13:26.972Z,21.90
2022-12-25T04:14:08.497Z,21.75
2022-12-25T04:14:49.883Z,22.77
2022-12-25T04:15:33.064Z,22.38
2022-12-25T04:16:14.889Z,21.98
2022-12-25T04:16:56.485Z,21.67
2022-12-25T04:17:38.096Z,21.30
2022-12-25T04:18:19.657Z,23.05
2022-12-25T04:19:01.163Z,21.98
2022-12-25T04:19:42.743Z,21.70
2022-12-25T04:20:25.830Z,21.25
2022-12-25T04:21:07.329Z,21.17
2022-12-25T04:21:48.917Z,21.38
2022-12-25T04:22:30.585Z,21.95
2022-12-25T04:23:12.043Z,21.65
2022-12-25T04:23:53.337Z,21.30
2022-12-25T04:24:35.059Z,20.42
2022-12-25T04:25:16.552Z,21.10
2022-12-25T04:25:57.924Z,20.80
2022-12-25T04:26:39.545Z,21.00
2022-12-25T04:27:20.571Z,20.88
2022-12-25T04:28:02.146Z,20.98
2022-12-25T04:28:43.230Z,20.95
2022-12-25T04:29:24.652Z,22.05
2022-12-25T04:30:06.989Z,21.52
2022-12-25T04:30:49.816Z,21.02
2022-12-25T04:31:31.262Z,21.35
2022-12-25T04:32:13.155Z,20.30
2022-12-25T04:32:54.531Z,21.70
2022-12-25T04:33:35.855Z,20.00
2022-12-25T04:34:17.324Z,20.85
2022-12-25T04:34:59.075Z,21.60
2022-12-25T04:35:40.939Z,21.25
2022-12-25T04:36:09.812Z,21.88
2022-12-25T04:36:32.689Z,21.77
2022-12-25T04:36:57.835Z,21.08
2022-12-25T04:37:20.609Z,20.13
2022-12-25T04:37:43.406Z,19.90
2022-12-25T04:38:06.186Z,20.55
2022-12-25T04:38:29.075Z,20.33
2022-12-25T04:38:52.014Z,19.80
2022-12-25T04:39:14.692Z,21.30
2022-12-25T04:39:37.508Z,20.77
2022-12-25T04:40:00.277Z,19.83
2022-12-25T04:40:22.963Z,20.25
2022-12-25T04:40:45.696Z,20.30
2022-12-25T04:41:09.211Z,19.98
2022-12-25T04:41:32.015Z,20.95
2022-12-25T04:41:54.789Z,20.60
2022-12-25T04:42:17.931Z,20.50
2022-12-25T04:42:41.171Z,21.17
2022-12-25T04:43:03.911Z,21.85
2022-12-25T04:43:26.838Z,20.77
2022-12-25T04:43:52.177Z,22.23
2022-12-25T04:44:14.906Z,21.80
2022-12-25T04:44:37.753Z,21.65
2022-12-25T04:45:00.522Z,21.52
2022-12-25T04:45:23.269Z,21.55
2022-12-25T04:45:57.096Z,22.73
2022-12-25T04:46:19.986Z,21.70
2022-12-25T04:46:42.894Z,23.77
2022-12-25T04:47:10.977Z,24.07
2022-12-25T04:47:37.130Z,24.88
2022-12-25T04:48:00.761Z,26.48
2022-12-25T04:48:23.595Z,27.15
2022-12-25T04:48:49.620Z,26.73
2022-12-25T04:49:12.340Z,28.02
2022-12-25T04:49:35.160Z,27.75
2022-12-25T04:49:57.929Z,27.42
2022-12-25T04:50:20.702Z,26.70
2022-12-25T04:50:43.430Z,26.15
2022-12-25T04:51:13.582Z,25.65
2022-12-25T04:51:37.216Z,25.30
2022-12-25T04:51:59.936Z,25.38
2022-12-25T04:52:22.720Z,25.17
2022-12-25T04:52:45.438Z,24.30
2022-12-25T04:53:08.235Z,24.30
2022-12-25T04:53:33.146Z,24.42
2022-12-25T04:53:56.117Z,24.50
2022-12-25T04:54:18.895Z,25.77
2022-12-25T04:54:41.770Z,26.02
2022-12-25T04:55:05.098Z,24.48
2022-12-25T04:55:27.866Z,24.25
2022-12-25T04:55:50.664Z,23.75
2022-12-25T04:56:13.464Z,24.00
2022-12-25T04:56:41.716Z,23.95
2022-12-25T04:57:08.330Z,24.60
2022-12-25T04:57:31.148Z,25.52
2022-12-25T04:57:53.833Z,24.83
2022-12-25T04:58:16.570Z,25.55
2022-12-25T04:58:39.305Z,24.88
2022-12-25T04:59:02.069Z,24.58
2022-12-25T04:59:24.965Z,25.38
2022-12-25T04:59:47.720Z,24.88
2022-12-25T05:00:11.857Z,25.33
2022-12-25T05:00:34.630Z,24.05
2022-12-25T05:01:01.664Z,23.88
2022-12-25T05:01:24.516Z,25.55
2022-12-25T05:01:47.559Z,25.13
2022-12-25T05:02:10.694Z,24.90
2022-12-25T05:02:34.032Z,25.30
2022-12-25T05:02:58.186Z,26.42
2022-12-25T05:03:21.252Z,25.05
2022-12-25T05:03:44.247Z,26.05
2022-12-25T05:04:07.149Z,25.13
2022-12-25T05:04:29.873Z,25.15
2022-12-25T05:04:52.765Z,24.13
2022-12-25T05:05:15.701Z,24.52
2022-12-25T05:05:40.621Z,24.08
2022-12-25T05:06:03.594Z,24.85
2022-12-25T05:06:26.412Z,24.38
2022-12-25T05:06:49.249Z,23.77
2022-12-25T05:07:12.001Z,23.13
2022-12-25T05:07:35.839Z,23.02
2022-12-25T05:07:58.569Z,23.08
2022-12-25T05:08:21.348Z,21.98
2022-12-25T05:08:44.057Z,22.15
2022-12-25T05:09:07.000Z,23.85
2022-12-25T05:09:30.826Z,23.60
2022-12-25T05:09:53.786Z,22.20
2022-12-25T05:10:16.720Z,22.50
2022-12-25T05:10:40.321Z,22.45
2022-12-25T05:11:06.014Z,22.50
2022-12-25T05:11:28.823Z,22.95
2022-12-25T05:11:51.579Z,23.77
2022-12-25T05:12:14.293Z,22.67
2022-12-25T05:12:37.082Z,23.25
2022-12-25T05:12:59.801Z,23.70
2022-12-25T05:13:22.564Z,23.10
2022-12-25T05:13:45.355Z,22.77
2022-12-25T05:14:08.193Z,22.15
2022-12-25T05:14:31.059Z,22.67
2022-12-25T05:14:53.908Z,22.92
2022-12-25T05:15:16.862Z,23.67
2022-12-25T05:15:40.312Z,23.23
2022-12-25T05:16:07.051Z,23.50
2022-12-25T05:16:29.793Z,22.98
2022-12-25T05:16:52.606Z,22.27
2022-12-25T05:17:15.450Z,22.08
2022-12-25T05:17:38.256Z,22.08
2022-12-25T05:18:01.050Z,22.85
2022-12-25T05:18:24.196Z,23.00
2022-12-25T05:18:48.755Z,22.45
2022-12-25T05:19:11.530Z,22.35
2022-12-25T05:19:34.280Z,23.10
2022-12-25T05:19:57.030Z,23.00
2022-12-25T05:20:19.756Z,22.17
2022-12-25T05:20:42.497Z,23.20
2022-12-25T05:21:05.469Z,22.35
2022-12-25T05:21:28.173Z,22.05
2022-12-25T05:21:50.900Z,21.50
2022-12-25T05:22:13.640Z,21.15
2022-12-25T05:22:36.391Z,21.15
2022-12-25T05:22:59.145Z,21.63
2022-12-25T05:23:22.119Z,21.15
2022-12-25T05:23:50.705Z,22.67
2022-12-25T05:24:13.510Z,22.13
2022-12-25T05:24:36.339Z,22.58
2022-12-25T05:24:59.078Z,22.48
2022-12-25T05:25:21.855Z,22.70
2022-12-25T05:25:44.625Z,22.85
2022-12-25T05:26:07.588Z,22.77
2022-12-25T05:26:30.515Z,22.50
2022-12-25T05:26:53.351Z,21.88
2022-12-25T05:27:16.159Z,23.10
2022-12-25T05:27:38.895Z,22.30
2022-12-25T05:28:01.684Z,21.30
2022-12-25T05:28:24.505Z,22.58
2022-12-25T05:28:47.882Z,22.65
2022-12-25T05:29:10.590Z,23.05
2022-12-25T05:29:33.674Z,22.55
2022-12-25T05:29:56.504Z,23.17
2022-12-25T05:30:19.329Z,23.23
2022-12-25T05:30:42.131Z,23.23
2022-12-25T05:31:06.715Z,23.75
2022-12-25T05:31:29.588Z,23.50
2022-12-25T05:31:52.459Z,23.30
2022-12-25T05:32:15.279Z,22.85
2022-12-25T05:32:38.115Z,23.13
2022-12-25T05:33:00.850Z,24.70
2022-12-25T05:33:23.615Z,24.77
2022-12-25T05:33:48.876Z,24.65
2022-12-25T05:34:11.653Z,23.80
2022-12-25T05:34:34.410Z,23.83
2022-12-25T05:35:00.322Z,23.92
2022-12-25T05:35:23.146Z,24.23
2022-12-25T05:35:45.965Z,24.25
2022-12-25T05:36:10.618Z,24.33
2022-12-25T05:36:33.418Z,23.92
2022-12-25T05:36:56.844Z,23.45
2022-12-25T05:37:19.595Z,24.90
2022-12-25T05:37:42.340Z,23.75
2022-12-25T05:38:05.079Z,24.40
2022-12-25T05:38:27.915Z,24.27
2022-12-25T05:38:51.071Z,25.35
2022-12-25T05:39:16.335Z,26.10
2022-12-25T05:39:39.109Z,25.70
2022-12-25T05:40:04.836Z,26.73
2022-12-25T05:40:27.545Z,26.98
2022-12-25T05:40:51.485Z,26.98
2022-12-25T05:41:14.266Z,27.73
2022-12-25T05:41:37.155Z,27.15
2022-12-25T05:41:59.900Z,27.30
2022-12-25T05:42:25.130Z,27.02
2022-12-25T05:42:47.909Z,27.42
2022-12-25T05:43:10.655Z,27.48
2022-12-25T05:43:33.374Z,26.75
2022-12-25T05:43:56.089Z,27.80
2022-12-25T05:44:19.059Z,27.35
2022-12-25T05:44:41.774Z,26.55
2022-12-25T05:45:05.617Z,27.40
2022-12-25T05:45:28.400Z,26.45
2022-12-25T05:45:51.236Z,27.30
2022-12-25T05:46:15.506Z,26.23
2022-12-25T05:46:38.351Z,26.70
2022-12-25T05:47:01.262Z,26.38
2022-12-25T05:47:24.084Z,25.80
2022-12-25T05:47:46.955Z,26.15
2022-12-25T05:48:09.920Z,26.25
2022-12-25T05:48:33.238Z,25.80
2022-12-25T05:48:56.175Z,25.75
2022-12-25T05:49:18.891Z,26.85
2022-12-25T05:49:42.434Z,26.00
2022-12-25T05:50:06.423Z,25.65
2022-12-25T05:50:29.228Z,25.10
2022-12-25T05:50:52.534Z,24.90
2022-12-25T05:51:15.386Z,26.63
2022-12-25T05:51:38.262Z,27.60
2022-12-25T05:52:01.036Z,29.05
2022-12-25T05:52:23.777Z,29.42
2022-12-25T05:52:46.568Z,29.20
2022-12-25T05:53:10.142Z,29.20
2022-12-25T05:53:32.882Z,29.33
2022-12-25T05:53:55.700Z,29.67
2022-12-25T05:54:18.595Z,28.65
2022-12-25T05:54:41.414Z,28.17
2022-12-25T05:55:04.501Z,27.20
2022-12-25T05:55:27.210Z,26.98
2022-12-25T05:55:50.928Z,27.20
2022-12-25T05:56:13.546Z,27.17
2022-12-25T05:56:36.429Z,27.85